Main page
METAR-TAF:

METAR-TAF

Airports :

Mangalore, India

Mangaluru Airport

latitude: 12-55N, longitude: 074-53E, elevation: 102 m

Current weather observation

The report was made 34 minutes ago, at 08:30 UTC
Wind 12 kt from the West
Temperature 34°C
Humidity 53%
Pressure 1009 hPa
Visibility: 6000 m
Few clouds at a height of 1500 ft

METAR: VOML 270830Z 26012KT 6000 FEW015 34/23 Q1009 NOSIG

Time: 14:34 (09:04 UTC)

Forecast

The report was made 1 hour and 4 minutes ago, at 08:00 UTC
Forecast valid from 27 at 09 UTC to 27 at 18 UTC
Wind 10 kt from the West
Visibility: 8000 m
Scattered clouds at a height of 1500 ft
Temporary
from 27 at 12 UTC to 27 at 15 UTC
Scattered clouds at a height of 1500 ft
Scattered clouds at a height of 2000 ft
Few clouds at a height of 2500 ft, Cumulonimbus.
Becoming
from 27 at 15 UTC to 27 at 16 UTC
Wind 5 kt from the East

TAF: VOML 270800Z 2709/2718 27010KT 8000 SCT015 TEMPO 2712/2715 SCT015 SCT020 FEW025CB BECMG 2715/2716 09005KT

Weather observations and forecasts of more than 4000 airports (METAR and TAF reports).

The available stations are represented by yellow and red dots on the map.

Hover mouse over dot to see the name of the station.

Then click to see weather observations and forecasts.

To change the map : click on the green buttons with a black cross to zoom in, on the green button with a dash to zoom out, or on the green arrows for adjacent maps.


METAR-TAF: